sensor_id;sensor_type;location;lat;lon;timestamp;P1;durP1;ratioP1;P2;durP2;ratioP2
6095;SDS011;25081;42.698;23.298;2022-11-20T00:01:57;8.90;;;2.20;;
6095;SDS011;25081;42.698;23.298;2022-11-20T00:04:09;10.80;;;3.50;;
6095;SDS011;25081;42.698;23.298;2022-11-20T00:06:20;9.90;;;3.47;;
6095;SDS011;25081;42.698;23.298;2022-11-20T00:08:31;2.83;;;1.63;;
6095;SDS011;25081;42.698;23.298;2022-11-20T00:10:41;4.47;;;1.63;;
6095;SDS011;25081;42.698;23.298;2022-11-20T00:12:52;3.50;;;1.87;;
6095;SDS011;25081;42.698;23.298;2022-11-20T00:15:04;4.20;;;1.70;;
6095;SDS011;25081;42.698;23.298;2022-11-20T00:17:15;6.70;;;1.87;;
6095;SDS011;25081;42.698;23.298;2022-11-20T00:19:26;3.90;;;2.03;;
6095;SDS011;25081;42.698;23.298;2022-11-20T00:21:37;4.70;;;1.60;;
6095;SDS011;25081;42.698;23.298;2022-11-20T00:23:47;3.93;;;1.57;;
6095;SDS011;25081;42.698;23.298;2022-11-20T00:26:00;5.73;;;1.70;;
6095;SDS011;25081;42.698;23.298;2022-11-20T00:28:11;4.30;;;1.60;;
6095;SDS011;25081;42.698;23.298;2022-11-20T00:30:22;6.00;;;1.73;;
6095;SDS011;25081;42.698;23.298;2022-11-20T00:32:32;7.03;;;1.93;;
6095;SDS011;25081;42.698;23.298;2022-11-20T00:34:43;6.70;;;1.97;;
6095;SDS011;25081;42.698;23.298;2022-11-20T00:36:53;2.00;;;1.40;;
6095;SDS011;25081;42.698;23.298;2022-11-20T00:39:04;3.87;;;1.60;;
6095;SDS011;25081;42.698;23.298;2022-11-20T00:41:15;5.40;;;1.80;;
6095;SDS011;25081;42.698;23.298;2022-11-20T00:43:25;4.80;;;1.80;;
6095;SDS011;25081;42.698;23.298;2022-11-20T00:45:36;4.20;;;2.40;;
6095;SDS011;25081;42.698;23.298;2022-11-20T00:47:47;7.17;;;1.90;;
6095;SDS011;25081;42.698;23.298;2022-11-20T00:49:57;3.43;;;1.57;;
6095;SDS011;25081;42.698;23.298;2022-11-20T00:52:08;4.53;;;1.60;;
6095;SDS011;25081;42.698;23.298;2022-11-20T00:54:18;4.30;;;2.07;;
6095;SDS011;25081;42.698;23.298;2022-11-20T00:56:29;4.77;;;1.80;;
6095;SDS011;25081;42.698;23.298;2022-11-20T00:58:40;5.10;;;1.70;;
6095;SDS011;25081;42.698;23.298;2022-11-20T01:00:50;4.23;;;1.77;;
6095;SDS011;25081;42.698;23.298;2022-11-20T01:03:01;4.33;;;1.73;;
6095;SDS011;25081;42.698;23.298;2022-11-20T01:05:11;3.73;;;1.60;;
6095;SDS011;25081;42.698;23.298;2022-11-20T01:07:22;7.30;;;1.90;;
6095;SDS011;25081;42.698;23.298;2022-11-20T01:09:33;1.90;;;1.20;;
6095;SDS011;25081;42.698;23.298;2022-11-20T01:11:44;3.10;;;1.77;;
6095;SDS011;25081;42.698;23.298;2022-11-20T01:13:54;2.97;;;1.60;;
6095;SDS011;25081;42.698;23.298;2022-11-20T01:16:06;3.37;;;1.80;;
6095;SDS011;25081;42.698;23.298;2022-11-20T01:18:16;2.67;;;1.40;;
6095;SDS011;25081;42.698;23.298;2022-11-20T01:20:27;3.63;;;1.80;;
6095;SDS011;25081;42.698;23.298;2022-11-20T01:22:37;6.43;;;1.60;;
6095;SDS011;25081;42.698;23.298;2022-11-20T01:24:48;3.50;;;1.63;;
6095;SDS011;25081;42.698;23.298;2022-11-20T01:26:58;5.23;;;1.77;;
6095;SDS011;25081;42.698;23.298;2022-11-20T01:29:10;3.13;;;1.70;;
6095;SDS011;25081;42.698;23.298;2022-11-20T01:31:21;2.97;;;1.70;;
6095;SDS011;25081;42.698;23.298;2022-11-20T01:33:31;6.23;;;2.33;;
6095;SDS011;25081;42.698;23.298;2022-11-20T01:35:42;3.63;;;1.50;;
6095;SDS011;25081;42.698;23.298;2022-11-20T01:37:52;2.80;;;1.40;;
6095;SDS011;25081;42.698;23.298;2022-11-20T01:40:03;2.30;;;1.70;;
6095;SDS011;25081;42.698;23.298;2022-11-20T01:42:15;4.10;;;1.60;;
6095;SDS011;25081;42.698;23.298;2022-11-20T01:44:45;2.93;;;1.40;;
6095;SDS011;25081;42.698;23.298;2022-11-20T01:46:59;2.43;;;1.50;;
6095;SDS011;25081;42.698;23.298;2022-11-20T01:49:10;2.20;;;1.23;;
6095;SDS011;25081;42.698;23.298;2022-11-20T01:51:22;2.67;;;1.40;;
6095;SDS011;25081;42.698;23.298;2022-11-20T01:53:34;2.80;;;1.80;;
6095;SDS011;25081;42.698;23.298;2022-11-20T01:55:44;5.00;;;1.77;;
6095;SDS011;25081;42.698;23.298;2022-11-20T01:57:54;2.90;;;1.43;;
6095;SDS011;25081;42.698;23.298;2022-11-20T02:00:07;4.13;;;1.90;;
6095;SDS011;25081;42.698;23.298;2022-11-20T02:02:17;3.00;;;1.87;;
6095;SDS011;25081;42.698;23.298;2022-11-20T02:04:28;3.70;;;1.63;;
6095;SDS011;25081;42.698;23.298;2022-11-20T02:06:40;3.30;;;1.40;;
6095;SDS011;25081;42.698;23.298;2022-11-20T02:08:50;4.27;;;1.50;;
6095;SDS011;25081;42.698;23.298;2022-11-20T02:11:00;4.20;;;1.60;;
6095;SDS011;25081;42.698;23.298;2022-11-20T02:13:11;2.67;;;1.50;;
6095;SDS011;25081;42.698;23.298;2022-11-20T02:15:39;5.90;;;1.40;;
6095;SDS011;25081;42.698;23.298;2022-11-20T02:17:50;2.50;;;1.60;;
6095;SDS011;25081;42.698;23.298;2022-11-20T02:20:01;3.67;;;1.70;;
6095;SDS011;25081;42.698;23.298;2022-11-20T02:22:13;4.20;;;1.70;;
6095;SDS011;25081;42.698;23.298;2022-11-20T02:24:22;4.40;;;1.50;;
6095;SDS011;25081;42.698;23.298;2022-11-20T02:26:34;4.30;;;1.40;;
6095;SDS011;25081;42.698;23.298;2022-11-20T02:28:44;4.07;;;1.60;;
6095;SDS011;25081;42.698;23.298;2022-11-20T02:30:55;2.30;;;1.57;;
6095;SDS011;25081;42.698;23.298;2022-11-20T02:33:06;4.30;;;1.40;;
6095;SDS011;25081;42.698;23.298;2022-11-20T02:37:50;5.33;;;1.63;;
6095;SDS011;25081;42.698;23.298;2022-11-20T02:40:00;2.83;;;1.40;;
6095;SDS011;25081;42.698;23.298;2022-11-20T02:42:11;2.30;;;1.40;;
6095;SDS011;25081;42.698;23.298;2022-11-20T02:44:22;10.70;;;1.93;;
6095;SDS011;25081;42.698;23.298;2022-11-20T02:46:32;4.23;;;1.90;;
6095;SDS011;25081;42.698;23.298;2022-11-20T02:48:43;4.20;;;1.90;;
6095;SDS011;25081;42.698;23.298;2022-11-20T02:50:54;3.50;;;1.80;;
6095;SDS011;25081;42.698;23.298;2022-11-20T02:53:04;5.47;;;1.80;;
6095;SDS011;25081;42.698;23.298;2022-11-20T02:55:15;3.10;;;1.60;;
6095;SDS011;25081;42.698;23.298;2022-11-20T02:57:26;5.73;;;1.90;;
6095;SDS011;25081;42.698;23.298;2022-11-20T02:59:36;4.17;;;1.97;;
6095;SDS011;25081;42.698;23.298;2022-11-20T03:01:47;3.10;;;1.60;;
6095;SDS011;25081;42.698;23.298;2022-11-20T03:03:58;6.10;;;1.97;;
6095;SDS011;25081;42.698;23.298;2022-11-20T03:06:08;7.73;;;1.87;;
6095;SDS011;25081;42.698;23.298;2022-11-20T03:08:19;8.30;;;1.60;;
6095;SDS011;25081;42.698;23.298;2022-11-20T03:10:29;2.40;;;1.53;;
6095;SDS011;25081;42.698;23.298;2022-11-20T03:12:40;7.20;;;2.13;;
6095;SDS011;25081;42.698;23.298;2022-11-20T03:14:50;4.33;;;2.23;;
6095;SDS011;25081;42.698;23.298;2022-11-20T03:17:01;5.40;;;2.00;;
6095;SDS011;25081;42.698;23.298;2022-11-20T03:19:12;5.63;;;2.20;;
6095;SDS011;25081;42.698;23.298;2022-11-20T03:21:22;3.70;;;1.73;;
6095;SDS011;25081;42.698;23.298;2022-11-20T03:23:33;4.70;;;2.30;;
6095;SDS011;25081;42.698;23.298;2022-11-20T03:25:43;4.23;;;2.03;;
6095;SDS011;25081;42.698;23.298;2022-11-20T03:27:54;2.77;;;1.60;;
6095;SDS011;25081;42.698;23.298;2022-11-20T03:30:06;2.90;;;1.70;;
6095;SDS011;25081;42.698;23.298;2022-11-20T03:32:18;5.63;;;1.77;;
6095;SDS011;25081;42.698;23.298;2022-11-20T03:34:28;2.33;;;1.60;;
6095;SDS011;25081;42.698;23.298;2022-11-20T03:36:39;3.77;;;1.60;;
6095;SDS011;25081;42.698;23.298;2022-11-20T03:38:50;2.80;;;1.50;;
6095;SDS011;25081;42.698;23.298;2022-11-20T03:41:01;2.90;;;2.00;;
6095;SDS011;25081;42.698;23.298;2022-11-20T03:43:11;3.63;;;1.77;;
6095;SDS011;25081;42.698;23.298;2022-11-20T03:45:22;4.00;;;1.73;;
6095;SDS011;25081;42.698;23.298;2022-11-20T03:47:33;3.90;;;1.50;;
6095;SDS011;25081;42.698;23.298;2022-11-20T03:49:43;8.93;;;2.57;;
6095;SDS011;25081;42.698;23.298;2022-11-20T03:51:54;3.53;;;1.70;;
6095;SDS011;25081;42.698;23.298;2022-11-20T03:54:06;7.93;;;2.13;;
6095;SDS011;25081;42.698;23.298;2022-11-20T03:56:16;8.03;;;1.80;;
6095;SDS011;25081;42.698;23.298;2022-11-20T03:58:26;4.73;;;2.47;;
6095;SDS011;25081;42.698;23.298;2022-11-20T04:00:37;3.10;;;1.80;;
6095;SDS011;25081;42.698;23.298;2022-11-20T04:02:48;5.90;;;2.47;;
6095;SDS011;25081;42.698;23.298;2022-11-20T04:04:58;2.90;;;1.73;;
6095;SDS011;25081;42.698;23.298;2022-11-20T04:07:09;4.30;;;2.00;;
6095;SDS011;25081;42.698;23.298;2022-11-20T04:09:20;6.30;;;2.10;;
6095;SDS011;25081;42.698;23.298;2022-11-20T04:11:31;4.17;;;1.70;;
6095;SDS011;25081;42.698;23.298;2022-11-20T04:13:41;3.20;;;1.70;;
6095;SDS011;25081;42.698;23.298;2022-11-20T04:15:51;3.63;;;2.13;;
6095;SDS011;25081;42.698;23.298;2022-11-20T04:18:03;4.07;;;1.63;;
6095;SDS011;25081;42.698;23.298;2022-11-20T04:20:14;3.80;;;1.60;;
6095;SDS011;25081;42.698;23.298;2022-11-20T04:22:25;4.77;;;1.73;;
6095;SDS011;25081;42.698;23.298;2022-11-20T04:24:35;4.60;;;1.87;;
6095;SDS011;25081;42.698;23.298;2022-11-20T04:26:46;3.53;;;1.73;;
6095;SDS011;25081;42.698;23.298;2022-11-20T04:28:56;3.70;;;1.60;;
6095;SDS011;25081;42.698;23.298;2022-11-20T04:31:08;5.80;;;2.10;;
6095;SDS011;25081;42.698;23.298;2022-11-20T04:33:17;4.67;;;1.80;;
6095;SDS011;25081;42.698;23.298;2022-11-20T04:35:28;3.37;;;1.50;;
6095;SDS011;25081;42.698;23.298;2022-11-20T04:37:39;6.30;;;1.93;;
6095;SDS011;25081;42.698;23.298;2022-11-20T04:39:49;8.20;;;1.60;;
6095;SDS011;25081;42.698;23.298;2022-11-20T04:42:00;2.77;;;1.87;;
6095;SDS011;25081;42.698;23.298;2022-11-20T04:44:28;4.27;;;1.53;;
6095;SDS011;25081;42.698;23.298;2022-11-20T04:46:40;4.03;;;2.60;;
6095;SDS011;25081;42.698;23.298;2022-11-20T04:48:50;2.17;;;1.37;;
6095;SDS011;25081;42.698;23.298;2022-11-20T04:51:03;2.77;;;1.73;;
6095;SDS011;25081;42.698;23.298;2022-11-20T04:53:14;3.33;;;1.43;;
6095;SDS011;25081;42.698;23.298;2022-11-20T04:55:24;3.30;;;1.57;;
6095;SDS011;25081;42.698;23.298;2022-11-20T04:57:35;4.63;;;2.13;;
6095;SDS011;25081;42.698;23.298;2022-11-20T04:59:46;3.00;;;1.60;;
6095;SDS011;25081;42.698;23.298;2022-11-20T05:01:56;3.07;;;1.47;;
6095;SDS011;25081;42.698;23.298;2022-11-20T05:04:07;6.77;;;2.40;;
6095;SDS011;25081;42.698;23.298;2022-11-20T05:06:18;3.50;;;1.20;;
6095;SDS011;25081;42.698;23.298;2022-11-20T05:08:28;3.70;;;1.43;;
6095;SDS011;25081;42.698;23.298;2022-11-20T05:10:39;3.50;;;1.90;;
6095;SDS011;25081;42.698;23.298;2022-11-20T05:12:49;3.70;;;2.00;;
6095;SDS011;25081;42.698;23.298;2022-11-20T05:15:00;2.17;;;1.47;;
6095;SDS011;25081;42.698;23.298;2022-11-20T05:17:11;2.47;;;1.40;;
6095;SDS011;25081;42.698;23.298;2022-11-20T05:19:21;2.80;;;1.20;;
6095;SDS011;25081;42.698;23.298;2022-11-20T05:21:32;6.27;;;1.50;;
6095;SDS011;25081;42.698;23.298;2022-11-20T05:23:43;1.80;;;1.17;;
6095;SDS011;25081;42.698;23.298;2022-11-20T05:25:53;2.50;;;1.30;;
6095;SDS011;25081;42.698;23.298;2022-11-20T05:28:04;4.50;;;1.60;;
6095;SDS011;25081;42.698;23.298;2022-11-20T05:30:15;4.10;;;1.53;;
6095;SDS011;25081;42.698;23.298;2022-11-20T05:32:26;2.63;;;1.67;;
6095;SDS011;25081;42.698;23.298;2022-11-20T05:34:37;4.20;;;1.60;;
6095;SDS011;25081;42.698;23.298;2022-11-20T05:36:47;3.93;;;1.60;;
6095;SDS011;25081;42.698;23.298;2022-11-20T05:38:58;3.77;;;1.70;;
6095;SDS011;25081;42.698;23.298;2022-11-20T05:41:09;3.37;;;1.40;;
6095;SDS011;25081;42.698;23.298;2022-11-20T05:43:19;5.07;;;2.13;;
6095;SDS011;25081;42.698;23.298;2022-11-20T05:45:30;4.10;;;1.77;;
6095;SDS011;25081;42.698;23.298;2022-11-20T05:47:40;5.60;;;1.70;;
6095;SDS011;25081;42.698;23.298;2022-11-20T05:49:51;4.27;;;1.93;;
6095;SDS011;25081;42.698;23.298;2022-11-20T05:52:01;6.33;;;2.27;;
6095;SDS011;25081;42.698;23.298;2022-11-20T05:54:12;6.50;;;2.20;;
6095;SDS011;25081;42.698;23.298;2022-11-20T05:56:23;2.90;;;1.70;;
6095;SDS011;25081;42.698;23.298;2022-11-20T05:58:33;2.10;;;1.30;;
6095;SDS011;25081;42.698;23.298;2022-11-20T06:00:44;3.37;;;1.83;;
6095;SDS011;25081;42.698;23.298;2022-11-20T06:02:54;2.83;;;1.50;;
6095;SDS011;25081;42.698;23.298;2022-11-20T06:05:06;5.17;;;2.00;;
6095;SDS011;25081;42.698;23.298;2022-11-20T06:07:17;6.00;;;3.63;;
6095;SDS011;25081;42.698;23.298;2022-11-20T06:09:28;3.73;;;2.10;;
6095;SDS011;25081;42.698;23.298;2022-11-20T06:11:38;4.23;;;2.10;;
6095;SDS011;25081;42.698;23.298;2022-11-20T06:13:49;6.20;;;1.93;;
6095;SDS011;25081;42.698;23.298;2022-11-20T06:16:00;3.20;;;1.80;;
6095;SDS011;25081;42.698;23.298;2022-11-20T06:18:10;5.23;;;2.20;;
6095;SDS011;25081;42.698;23.298;2022-11-20T06:20:21;4.33;;;2.47;;
6095;SDS011;25081;42.698;23.298;2022-11-20T06:22:32;12.23;;;2.90;;
6095;SDS011;25081;42.698;23.298;2022-11-20T06:24:42;6.97;;;2.70;;
6095;SDS011;25081;42.698;23.298;2022-11-20T06:26:53;2.60;;;1.83;;
6095;SDS011;25081;42.698;23.298;2022-11-20T06:29:03;4.63;;;2.87;;
6095;SDS011;25081;42.698;23.298;2022-11-20T06:31:15;13.47;;;6.13;;
6095;SDS011;25081;42.698;23.298;2022-11-20T06:33:25;6.50;;;2.80;;
6095;SDS011;25081;42.698;23.298;2022-11-20T06:35:35;4.20;;;2.60;;
6095;SDS011;25081;42.698;23.298;2022-11-20T06:37:46;6.90;;;3.20;;
6095;SDS011;25081;42.698;23.298;2022-11-20T06:39:56;6.60;;;2.73;;
6095;SDS011;25081;42.698;23.298;2022-11-20T06:42:07;3.47;;;1.80;;
6095;SDS011;25081;42.698;23.298;2022-11-20T06:44:17;5.63;;;2.80;;
6095;SDS011;25081;42.698;23.298;2022-11-20T06:46:28;5.07;;;2.23;;
6095;SDS011;25081;42.698;23.298;2022-11-20T06:48:39;9.17;;;3.80;;
6095;SDS011;25081;42.698;23.298;2022-11-20T06:50:50;7.03;;;2.73;;
6095;SDS011;25081;42.698;23.298;2022-11-20T06:53:02;7.43;;;2.70;;
6095;SDS011;25081;42.698;23.298;2022-11-20T06:55:13;8.13;;;2.70;;
6095;SDS011;25081;42.698;23.298;2022-11-20T06:57:24;4.77;;;1.90;;
6095;SDS011;25081;42.698;23.298;2022-11-20T06:59:35;7.40;;;2.50;;
6095;SDS011;25081;42.698;23.298;2022-11-20T07:01:46;7.47;;;2.00;;
6095;SDS011;25081;42.698;23.298;2022-11-20T07:03:56;5.70;;;1.90;;
6095;SDS011;25081;42.698;23.298;2022-11-20T07:06:07;8.37;;;2.30;;
6095;SDS011;25081;42.698;23.298;2022-11-20T07:08:17;8.17;;;3.00;;
6095;SDS011;25081;42.698;23.298;2022-11-20T07:10:28;6.20;;;2.37;;
6095;SDS011;25081;42.698;23.298;2022-11-20T07:12:39;6.17;;;2.77;;
6095;SDS011;25081;42.698;23.298;2022-11-20T07:14:49;7.40;;;2.43;;
6095;SDS011;25081;42.698;23.298;2022-11-20T07:17:01;7.63;;;2.50;;
6095;SDS011;25081;42.698;23.298;2022-11-20T07:19:12;5.20;;;2.60;;
6095;SDS011;25081;42.698;23.298;2022-11-20T07:21:23;3.80;;;1.80;;
6095;SDS011;25081;42.698;23.298;2022-11-20T07:23:34;6.73;;;2.87;;
6095;SDS011;25081;42.698;23.298;2022-11-20T07:25:45;7.37;;;2.33;;
6095;SDS011;25081;42.698;23.298;2022-11-20T07:27:57;3.67;;;2.00;;
6095;SDS011;25081;42.698;23.298;2022-11-20T07:30:09;10.70;;;3.17;;
6095;SDS011;25081;42.698;23.298;2022-11-20T07:32:20;7.30;;;2.77;;
6095;SDS011;25081;42.698;23.298;2022-11-20T07:34:31;5.60;;;2.60;;
6095;SDS011;25081;42.698;23.298;2022-11-20T07:36:41;8.90;;;3.20;;
6095;SDS011;25081;42.698;23.298;2022-11-20T07:38:52;5.60;;;3.10;;
6095;SDS011;25081;42.698;23.298;2022-11-20T07:41:03;6.40;;;2.47;;
6095;SDS011;25081;42.698;23.298;2022-11-20T07:43:13;6.53;;;2.60;;
6095;SDS011;25081;42.698;23.298;2022-11-20T07:45:24;6.10;;;2.93;;
6095;SDS011;25081;42.698;23.298;2022-11-20T07:47:36;7.20;;;3.20;;
6095;SDS011;25081;42.698;23.298;2022-11-20T07:49:46;4.10;;;2.40;;
6095;SDS011;25081;42.698;23.298;2022-11-20T07:51:57;7.73;;;2.40;;
6095;SDS011;25081;42.698;23.298;2022-11-20T07:54:07;4.67;;;3.10;;
6095;SDS011;25081;42.698;23.298;2022-11-20T07:56:18;7.77;;;3.00;;
6095;SDS011;25081;42.698;23.298;2022-11-20T07:58:29;14.30;;;3.47;;
6095;SDS011;25081;42.698;23.298;2022-11-20T08:00:40;2.50;;;1.80;;
6095;SDS011;25081;42.698;23.298;2022-11-20T08:02:50;6.30;;;2.67;;
6095;SDS011;25081;42.698;23.298;2022-11-20T08:05:01;5.93;;;3.10;;
6095;SDS011;25081;42.698;23.298;2022-11-20T08:07:12;6.10;;;3.03;;
6095;SDS011;25081;42.698;23.298;2022-11-20T08:09:23;5.10;;;2.73;;
6095;SDS011;25081;42.698;23.298;2022-11-20T08:11:33;5.37;;;2.73;;
6095;SDS011;25081;42.698;23.298;2022-11-20T08:14:02;10.83;;;3.67;;
6095;SDS011;25081;42.698;23.298;2022-11-20T08:16:21;6.47;;;2.80;;
6095;SDS011;25081;42.698;23.298;2022-11-20T08:18:32;6.87;;;3.53;;
6095;SDS011;25081;42.698;23.298;2022-11-20T08:20:42;8.90;;;3.80;;
6095;SDS011;25081;42.698;23.298;2022-11-20T08:22:53;13.57;;;4.70;;
6095;SDS011;25081;42.698;23.298;2022-11-20T08:25:08;17.83;;;5.00;;
6095;SDS011;25081;42.698;23.298;2022-11-20T08:27:19;12.17;;;4.10;;
6095;SDS011;25081;42.698;23.298;2022-11-20T08:29:30;11.17;;;3.90;;
6095;SDS011;25081;42.698;23.298;2022-11-20T08:31:40;7.80;;;3.30;;
6095;SDS011;25081;42.698;23.298;2022-11-20T08:33:51;6.13;;;3.70;;
6095;SDS011;25081;42.698;23.298;2022-11-20T08:36:02;8.33;;;3.83;;
6095;SDS011;25081;42.698;23.298;2022-11-20T08:38:12;9.53;;;3.30;;
6095;SDS011;25081;42.698;23.298;2022-11-20T08:40:23;7.47;;;3.70;;
6095;SDS011;25081;42.698;23.298;2022-11-20T08:42:33;5.73;;;2.90;;
6095;SDS011;25081;42.698;23.298;2022-11-20T08:44:44;6.40;;;3.70;;
6095;SDS011;25081;42.698;23.298;2022-11-20T08:46:54;8.33;;;3.00;;
6095;SDS011;25081;42.698;23.298;2022-11-20T08:49:05;5.53;;;2.33;;
6095;SDS011;25081;42.698;23.298;2022-11-20T08:51:15;5.13;;;2.57;;
6095;SDS011;25081;42.698;23.298;2022-11-20T08:53:26;8.20;;;3.70;;
6095;SDS011;25081;42.698;23.298;2022-11-20T08:55:37;7.67;;;2.60;;
6095;SDS011;25081;42.698;23.298;2022-11-20T08:57:47;6.30;;;3.50;;
6095;SDS011;25081;42.698;23.298;2022-11-20T08:59:58;8.70;;;4.17;;
6095;SDS011;25081;42.698;23.298;2022-11-20T09:02:08;8.87;;;3.87;;
6095;SDS011;25081;42.698;23.298;2022-11-20T09:04:19;12.43;;;4.00;;
6095;SDS011;25081;42.698;23.298;2022-11-20T09:06:29;11.07;;;3.67;;
6095;SDS011;25081;42.698;23.298;2022-11-20T09:08:40;10.90;;;4.40;;
6095;SDS011;25081;42.698;23.298;2022-11-20T09:10:52;13.17;;;5.50;;
6095;SDS011;25081;42.698;23.298;2022-11-20T09:13:02;8.60;;;4.57;;
6095;SDS011;25081;42.698;23.298;2022-11-20T09:15:13;9.27;;;4.13;;
6095;SDS011;25081;42.698;23.298;2022-11-20T09:17:23;10.13;;;4.70;;
6095;SDS011;25081;42.698;23.298;2022-11-20T09:19:34;19.90;;;5.20;;
6095;SDS011;25081;42.698;23.298;2022-11-20T09:21:45;12.03;;;5.30;;
6095;SDS011;25081;42.698;23.298;2022-11-20T09:23:55;10.20;;;4.53;;
6095;SDS011;25081;42.698;23.298;2022-11-20T09:26:07;9.03;;;2.93;;
6095;SDS011;25081;42.698;23.298;2022-11-20T09:28:16;10.63;;;3.17;;
6095;SDS011;25081;42.698;23.298;2022-11-20T09:30:27;5.97;;;2.80;;
6095;SDS011;25081;42.698;23.298;2022-11-20T09:32:39;9.40;;;2.20;;
6095;SDS011;25081;42.698;23.298;2022-11-20T09:34:49;3.83;;;1.90;;
6095;SDS011;25081;42.698;23.298;2022-11-20T09:37:00;6.30;;;2.57;;
6095;SDS011;25081;42.698;23.298;2022-11-20T09:39:10;5.00;;;2.70;;
6095;SDS011;25081;42.698;23.298;2022-11-20T09:41:29;5.30;;;2.37;;
6095;SDS011;25081;42.698;23.298;2022-11-20T09:43:44;8.67;;;2.80;;
6095;SDS011;25081;42.698;23.298;2022-11-20T09:46:04;7.30;;;3.50;;
6095;SDS011;25081;42.698;23.298;2022-11-20T09:48:20;8.23;;;4.33;;
6095;SDS011;25081;42.698;23.298;2022-11-20T09:50:32;7.23;;;3.97;;
6095;SDS011;25081;42.698;23.298;2022-11-20T09:52:44;10.73;;;4.10;;
6095;SDS011;25081;42.698;23.298;2022-11-20T09:54:53;6.83;;;3.27;;
6095;SDS011;25081;42.698;23.298;2022-11-20T09:57:05;5.90;;;3.10;;
6095;SDS011;25081;42.698;23.298;2022-11-20T09:59:18;15.10;;;4.70;;
6095;SDS011;25081;42.698;23.298;2022-11-20T10:01:40;6.83;;;3.87;;
6095;SDS011;25081;42.698;23.298;2022-11-20T10:03:53;12.70;;;4.23;;
6095;SDS011;25081;42.698;23.298;2022-11-20T10:06:04;8.40;;;3.63;;
6095;SDS011;25081;42.698;23.298;2022-11-20T10:08:16;5.77;;;3.10;;
6095;SDS011;25081;42.698;23.298;2022-11-20T10:10:29;6.83;;;2.80;;
6095;SDS011;25081;42.698;23.298;2022-11-20T10:12:41;11.33;;;3.50;;
6095;SDS011;25081;42.698;23.298;2022-11-20T10:14:53;7.90;;;3.40;;
6095;SDS011;25081;42.698;23.298;2022-11-20T10:17:08;6.40;;;3.20;;
6095;SDS011;25081;42.698;23.298;2022-11-20T10:19:23;6.83;;;3.50;;
6095;SDS011;25081;42.698;23.298;2022-11-20T10:21:37;10.33;;;3.83;;
6095;SDS011;25081;42.698;23.298;2022-11-20T10:26:28;7.27;;;3.13;;
6095;SDS011;25081;42.698;23.298;2022-11-20T10:28:46;6.30;;;3.23;;
6095;SDS011;25081;42.698;23.298;2022-11-20T10:30:59;5.33;;;3.30;;
6095;SDS011;25081;42.698;23.298;2022-11-20T10:33:11;9.23;;;4.20;;
6095;SDS011;25081;42.698;23.298;2022-11-20T10:35:23;12.13;;;3.90;;
6095;SDS011;25081;42.698;23.298;2022-11-20T10:37:32;11.27;;;3.90;;
6095;SDS011;25081;42.698;23.298;2022-11-20T10:39:44;9.30;;;3.60;;
6095;SDS011;25081;42.698;23.298;2022-11-20T10:41:54;7.40;;;3.87;;
6095;SDS011;25081;42.698;23.298;2022-11-20T10:44:05;12.17;;;4.27;;
6095;SDS011;25081;42.698;23.298;2022-11-20T10:46:18;8.03;;;3.57;;
6095;SDS011;25081;42.698;23.298;2022-11-20T10:48:29;13.53;;;5.00;;
6095;SDS011;25081;42.698;23.298;2022-11-20T10:50:43;11.50;;;4.60;;
6095;SDS011;25081;42.698;23.298;2022-11-20T10:52:54;21.50;;;4.90;;
6095;SDS011;25081;42.698;23.298;2022-11-20T10:55:05;13.33;;;5.73;;
6095;SDS011;25081;42.698;23.298;2022-11-20T10:57:19;11.90;;;5.90;;
6095;SDS011;25081;42.698;23.298;2022-11-20T10:59:41;11.50;;;5.00;;
6095;SDS011;25081;42.698;23.298;2022-11-20T11:01:56;14.00;;;5.80;;
6095;SDS011;25081;42.698;23.298;2022-11-20T11:04:07;14.23;;;5.27;;
6095;SDS011;25081;42.698;23.298;2022-11-20T11:06:24;7.97;;;4.83;;
6095;SDS011;25081;42.698;23.298;2022-11-20T11:08:35;6.97;;;2.50;;
6095;SDS011;25081;42.698;23.298;2022-11-20T11:10:46;5.83;;;2.43;;
6095;SDS011;25081;42.698;23.298;2022-11-20T11:12:56;4.13;;;2.13;;
6095;SDS011;25081;42.698;23.298;2022-11-20T11:15:11;5.40;;;2.17;;
6095;SDS011;25081;42.698;23.298;2022-11-20T11:17:23;5.67;;;1.90;;
6095;SDS011;25081;42.698;23.298;2022-11-20T11:19:35;4.17;;;1.80;;
6095;SDS011;25081;42.698;23.298;2022-11-20T11:21:47;5.67;;;2.50;;
6095;SDS011;25081;42.698;23.298;2022-11-20T11:23:58;3.00;;;1.57;;
6095;SDS011;25081;42.698;23.298;2022-11-20T11:26:18;8.83;;;2.27;;
6095;SDS011;25081;42.698;23.298;2022-11-20T11:28:28;5.40;;;3.00;;
6095;SDS011;25081;42.698;23.298;2022-11-20T11:30:42;6.40;;;2.83;;
6095;SDS011;25081;42.698;23.298;2022-11-20T11:33:02;5.20;;;4.10;;
6095;SDS011;25081;42.698;23.298;2022-11-20T11:35:25;4.60;;;3.03;;
6095;SDS011;25081;42.698;23.298;2022-11-20T11:37:35;5.30;;;2.93;;
6095;SDS011;25081;42.698;23.298;2022-11-20T11:39:46;6.60;;;2.20;;
6095;SDS011;25081;42.698;23.298;2022-11-20T11:41:56;5.30;;;2.00;;
6095;SDS011;25081;42.698;23.298;2022-11-20T11:44:14;3.03;;;1.50;;
6095;SDS011;25081;42.698;23.298;2022-11-20T11:49:22;3.43;;;2.40;;
6095;SDS011;25081;42.698;23.298;2022-11-20T11:51:34;8.13;;;2.50;;
6095;SDS011;25081;42.698;23.298;2022-11-20T11:53:44;4.40;;;2.17;;
6095;SDS011;25081;42.698;23.298;2022-11-20T11:55:56;6.53;;;2.07;;
6095;SDS011;25081;42.698;23.298;2022-11-20T11:58:09;5.30;;;2.10;;
6095;SDS011;25081;42.698;23.298;2022-11-20T12:00:21;4.13;;;2.20;;
6095;SDS011;25081;42.698;23.298;2022-11-20T12:02:36;10.20;;;2.40;;
6095;SDS011;25081;42.698;23.298;2022-11-20T12:04:49;10.40;;;2.70;;
6095;SDS011;25081;42.698;23.298;2022-11-20T12:06:57;7.23;;;3.00;;
6095;SDS011;25081;42.698;23.298;2022-11-20T12:09:09;5.33;;;2.30;;
6095;SDS011;25081;42.698;23.298;2022-11-20T12:11:21;8.03;;;4.60;;
6095;SDS011;25081;42.698;23.298;2022-11-20T12:13:36;4.77;;;2.70;;
6095;SDS011;25081;42.698;23.298;2022-11-20T12:15:52;8.10;;;2.50;;
6095;SDS011;25081;42.698;23.298;2022-11-20T12:18:18;8.50;;;2.50;;
6095;SDS011;25081;42.698;23.298;2022-11-20T12:20:16;4.40;;;2.20;;
6095;SDS011;25081;42.698;23.298;2022-11-20T12:22:28;7.87;;;2.33;;
6095;SDS011;25081;42.698;23.298;2022-11-20T12:24:46;4.80;;;2.17;;
6095;SDS011;25081;42.698;23.298;2022-11-20T12:27:02;6.40;;;2.20;;
6095;SDS011;25081;42.698;23.298;2022-11-20T12:29:17;5.33;;;2.50;;
6095;SDS011;25081;42.698;23.298;2022-11-20T12:31:35;6.57;;;2.30;;
6095;SDS011;25081;42.698;23.298;2022-11-20T12:33:50;7.77;;;2.57;;
6095;SDS011;25081;42.698;23.298;2022-11-20T12:36:10;8.33;;;2.20;;
6095;SDS011;25081;42.698;23.298;2022-11-20T12:38:31;4.07;;;1.57;;
6095;SDS011;25081;42.698;23.298;2022-11-20T12:40:49;6.80;;;1.70;;
6095;SDS011;25081;42.698;23.298;2022-11-20T12:43:01;7.07;;;1.60;;
6095;SDS011;25081;42.698;23.298;2022-11-20T12:45:41;5.17;;;1.83;;
6095;SDS011;25081;42.698;23.298;2022-11-20T12:50:39;9.57;;;3.30;;
6095;SDS011;25081;42.698;23.298;2022-11-20T12:52:51;10.33;;;3.10;;
6095;SDS011;25081;42.698;23.298;2022-11-20T12:55:08;10.00;;;3.67;;
6095;SDS011;25081;42.698;23.298;2022-11-20T12:57:44;8.10;;;4.53;;
6095;SDS011;25081;42.698;23.298;2022-11-20T13:00:07;12.13;;;6.40;;
6095;SDS011;25081;42.698;23.298;2022-11-20T13:02:23;14.33;;;5.90;;
6095;SDS011;25081;42.698;23.298;2022-11-20T13:04:38;8.30;;;4.63;;
6095;SDS011;25081;42.698;23.298;2022-11-20T13:06:49;9.20;;;4.90;;
6095;SDS011;25081;42.698;23.298;2022-11-20T13:09:00;5.70;;;3.97;;
6095;SDS011;25081;42.698;23.298;2022-11-20T13:11:12;8.87;;;3.90;;
6095;SDS011;25081;42.698;23.298;2022-11-20T13:13:23;7.10;;;3.73;;
6095;SDS011;25081;42.698;23.298;2022-11-20T13:15:39;10.33;;;3.80;;
6095;SDS011;25081;42.698;23.298;2022-11-20T13:17:51;8.97;;;3.53;;
6095;SDS011;25081;42.698;23.298;2022-11-20T13:20:02;4.47;;;2.83;;
6095;SDS011;25081;42.698;23.298;2022-11-20T13:22:12;16.00;;;4.60;;
6095;SDS011;25081;42.698;23.298;2022-11-20T13:24:24;10.33;;;6.27;;